Terminal Aerodrome Forecast
Issued by NWS

Home | Current Version | Previous Version | Graphics & Text | Print | Product List | Glossary On
Versions: 1 2 3 4 5 6 7 8 9 10 11 12 13
000
FTUS43 KTOP 252100 AAB
TAFMHK
TAF AMD
KMHK 252143Z 2522/2618 35011G20KT P6SM OVC030
     FM252300 33007KT P6SM BKN030
     FM260700 24006KT P6SM SCT040=

USA.gov is the U.S. government's official web portal to all federal, state and local government web resources and services.